Terminal Aerodrome Forecast
Issued by NWS

Home | Current Version | Previous Version | Text Only | Print | Product List | Glossary On
Versions: 1 2 3 4 5 6 7 8 9 10 11 12 13 14 15 16 17 18 19 20
000
FTUS46 KSEW 272337
TAFCLM
TAF
KCLM 272337Z 2800/2824 31006KT P6SM BKN250
     FM280300 28008KT P6SM SCT250
     FM281400 26006KT P6SM SCT009 SCT250
      TEMPO 2814/2818 BKN009 BKN250
     FM281800 34008KT P6SM SCT250=

USA.gov is the U.S. government's official web portal to all federal, state and local government web resources and services.